sensor_id;sensor_type;location;lat;lon;timestamp;temperature;humidity
3334;DHT22;1679;50.392;8.008;2022-08-19T00:01:53;20.50;99.90
3334;DHT22;1679;50.392;8.008;2022-08-19T00:04:23;20.50;99.90
3334;DHT22;1679;50.392;8.008;2022-08-19T00:06:49;20.50;99.90
3334;DHT22;1679;50.392;8.008;2022-08-19T00:09:17;20.40;99.90
3334;DHT22;1679;50.392;8.008;2022-08-19T00:11:45;20.40;99.90
3334;DHT22;1679;50.392;8.008;2022-08-19T00:14:12;20.40;99.90
3334;DHT22;1679;50.392;8.008;2022-08-19T00:16:39;20.40;99.90
3334;DHT22;1679;50.392;8.008;2022-08-19T00:19:06;20.40;99.90
3334;DHT22;1679;50.392;8.008;2022-08-19T00:21:32;20.30;99.90
3334;DHT22;1679;50.392;8.008;2022-08-19T00:23:59;20.30;99.90
3334;DHT22;1679;50.392;8.008;2022-08-19T00:26:27;20.30;99.90
3334;DHT22;1679;50.392;8.008;2022-08-19T00:28:53;20.40;99.90
3334;DHT22;1679;50.392;8.008;2022-08-19T00:31:18;20.40;99.90
3334;DHT22;1679;50.392;8.008;2022-08-19T00:33:44;20.30;99.90
3334;DHT22;1679;50.392;8.008;2022-08-19T00:36:10;20.30;99.90
3334;DHT22;1679;50.392;8.008;2022-08-19T00:38:37;20.30;99.90
3334;DHT22;1679;50.392;8.008;2022-08-19T00:41:06;20.30;99.90
3334;DHT22;1679;50.392;8.008;2022-08-19T00:43:32;20.30;99.90
3334;DHT22;1679;50.392;8.008;2022-08-19T00:45:57;20.30;99.90
3334;DHT22;1679;50.392;8.008;2022-08-19T00:48:23;20.20;99.90
3334;DHT22;1679;50.392;8.008;2022-08-19T00:50:51;20.20;99.90
3334;DHT22;1679;50.392;8.008;2022-08-19T00:53:23;20.20;99.90
3334;DHT22;1679;50.392;8.008;2022-08-19T00:55:51;20.20;99.90
3334;DHT22;1679;50.392;8.008;2022-08-19T00:58:21;20.20;99.90
3334;DHT22;1679;50.392;8.008;2022-08-19T01:00:47;20.20;99.90
3334;DHT22;1679;50.392;8.008;2022-08-19T01:03:16;20.10;99.90
3334;DHT22;1679;50.392;8.008;2022-08-19T01:05:44;20.10;99.90
3334;DHT22;1679;50.392;8.008;2022-08-19T01:08:10;20.10;99.90
3334;DHT22;1679;50.392;8.008;2022-08-19T01:10:42;20.10;99.90
3334;DHT22;1679;50.392;8.008;2022-08-19T01:13:09;20.10;99.90
3334;DHT22;1679;50.392;8.008;2022-08-19T01:15:42;20.10;99.90
3334;DHT22;1679;50.392;8.008;2022-08-19T01:18:11;20.10;99.90
3334;DHT22;1679;50.392;8.008;2022-08-19T01:20:39;20.20;99.90
3334;DHT22;1679;50.392;8.008;2022-08-19T01:23:05;20.30;99.90
3334;DHT22;1679;50.392;8.008;2022-08-19T01:25:51;20.30;99.90
3334;DHT22;1679;50.392;8.008;2022-08-19T01:28:19;20.30;99.90
3334;DHT22;1679;50.392;8.008;2022-08-19T01:30:45;20.20;99.90
3334;DHT22;1679;50.392;8.008;2022-08-19T01:33:13;20.20;99.90
3334;DHT22;1679;50.392;8.008;2022-08-19T01:35:39;20.10;99.90
3334;DHT22;1679;50.392;8.008;2022-08-19T01:38:08;20.10;99.90
3334;DHT22;1679;50.392;8.008;2022-08-19T01:40:37;19.90;99.90
3334;DHT22;1679;50.392;8.008;2022-08-19T01:43:04;19.90;99.90
3334;DHT22;1679;50.392;8.008;2022-08-19T01:45:33;19.80;99.90
3334;DHT22;1679;50.392;8.008;2022-08-19T01:48:00;19.80;99.90
3334;DHT22;1679;50.392;8.008;2022-08-19T01:50:27;19.80;99.90
3334;DHT22;1679;50.392;8.008;2022-08-19T01:52:54;19.80;99.90
3334;DHT22;1679;50.392;8.008;2022-08-19T01:55:21;19.80;99.90
3334;DHT22;1679;50.392;8.008;2022-08-19T01:57:52;19.70;99.90
3334;DHT22;1679;50.392;8.008;2022-08-19T02:00:21;19.70;99.90
3334;DHT22;1679;50.392;8.008;2022-08-19T02:02:49;19.70;99.90
3334;DHT22;1679;50.392;8.008;2022-08-19T02:05:14;19.70;99.90
3334;DHT22;1679;50.392;8.008;2022-08-19T02:07:43;19.70;99.90
3334;DHT22;1679;50.392;8.008;2022-08-19T02:10:13;19.60;99.90
3334;DHT22;1679;50.392;8.008;2022-08-19T02:12:40;19.50;99.90
3334;DHT22;1679;50.392;8.008;2022-08-19T02:15:06;19.60;99.90
3334;DHT22;1679;50.392;8.008;2022-08-19T02:17:33;19.50;99.90
3334;DHT22;1679;50.392;8.008;2022-08-19T02:19:58;19.50;99.90
3334;DHT22;1679;50.392;8.008;2022-08-19T02:22:25;19.50;99.90
3334;DHT22;1679;50.392;8.008;2022-08-19T02:24:52;19.50;99.90
3334;DHT22;1679;50.392;8.008;2022-08-19T02:27:18;19.40;99.90
3334;DHT22;1679;50.392;8.008;2022-08-19T02:29:46;19.40;99.90
3334;DHT22;1679;50.392;8.008;2022-08-19T02:32:12;19.40;99.90
3334;DHT22;1679;50.392;8.008;2022-08-19T02:34:37;19.40;99.90
3334;DHT22;1679;50.392;8.008;2022-08-19T02:37:03;19.40;99.90
3334;DHT22;1679;50.392;8.008;2022-08-19T02:39:28;19.30;99.90
3334;DHT22;1679;50.392;8.008;2022-08-19T02:41:54;19.30;99.90
3334;DHT22;1679;50.392;8.008;2022-08-19T02:44:20;19.20;99.90
3334;DHT22;1679;50.392;8.008;2022-08-19T02:46:47;19.20;99.90
3334;DHT22;1679;50.392;8.008;2022-08-19T02:49:13;19.10;99.90
3334;DHT22;1679;50.392;8.008;2022-08-19T02:51:44;19.10;99.90
3334;DHT22;1679;50.392;8.008;2022-08-19T02:54:11;19.10;99.90
3334;DHT22;1679;50.392;8.008;2022-08-19T02:56:39;19.00;99.90
3334;DHT22;1679;50.392;8.008;2022-08-19T02:59:05;18.90;99.90
3334;DHT22;1679;50.392;8.008;2022-08-19T03:01:34;18.90;99.90
3334;DHT22;1679;50.392;8.008;2022-08-19T03:04:03;18.80;99.90
3334;DHT22;1679;50.392;8.008;2022-08-19T03:06:30;18.90;99.90
3334;DHT22;1679;50.392;8.008;2022-08-19T03:08:56;18.80;99.90
3334;DHT22;1679;50.392;8.008;2022-08-19T03:11:25;18.80;99.90
3334;DHT22;1679;50.392;8.008;2022-08-19T03:13:52;18.80;99.90
3334;DHT22;1679;50.392;8.008;2022-08-19T03:16:21;18.80;99.90
3334;DHT22;1679;50.392;8.008;2022-08-19T03:18:47;18.80;99.90
3334;DHT22;1679;50.392;8.008;2022-08-19T03:21:18;18.70;99.90
3334;DHT22;1679;50.392;8.008;2022-08-19T03:23:44;18.70;99.90
3334;DHT22;1679;50.392;8.008;2022-08-19T03:26:12;18.70;99.90
3334;DHT22;1679;50.392;8.008;2022-08-19T03:28:39;18.70;99.90
3334;DHT22;1679;50.392;8.008;2022-08-19T03:31:11;18.60;99.90
3334;DHT22;1679;50.392;8.008;2022-08-19T03:33:37;18.70;99.90
3334;DHT22;1679;50.392;8.008;2022-08-19T03:36:14;18.70;99.90
3334;DHT22;1679;50.392;8.008;2022-08-19T03:38:49;18.60;99.90
3334;DHT22;1679;50.392;8.008;2022-08-19T03:41:18;18.60;99.90
3334;DHT22;1679;50.392;8.008;2022-08-19T03:43:45;18.50;99.90
3334;DHT22;1679;50.392;8.008;2022-08-19T03:46:14;18.40;99.90
3334;DHT22;1679;50.392;8.008;2022-08-19T03:48:41;18.30;99.90
3334;DHT22;1679;50.392;8.008;2022-08-19T03:51:14;18.30;99.90
3334;DHT22;1679;50.392;8.008;2022-08-19T03:53:40;18.20;99.90
3334;DHT22;1679;50.392;8.008;2022-08-19T03:56:08;18.20;99.90
3334;DHT22;1679;50.392;8.008;2022-08-19T03:58:34;18.30;99.90
3334;DHT22;1679;50.392;8.008;2022-08-19T04:01:01;18.20;99.90
3334;DHT22;1679;50.392;8.008;2022-08-19T04:03:27;18.20;99.90
3334;DHT22;1679;50.392;8.008;2022-08-19T04:05:53;18.20;99.90
3334;DHT22;1679;50.392;8.008;2022-08-19T04:08:19;18.20;99.90
3334;DHT22;1679;50.392;8.008;2022-08-19T04:10:47;18.20;99.90
3334;DHT22;1679;50.392;8.008;2022-08-19T04:13:15;18.10;99.90
3334;DHT22;1679;50.392;8.008;2022-08-19T04:15:43;18.20;99.90
3334;DHT22;1679;50.392;8.008;2022-08-19T04:18:09;18.20;99.90
3334;DHT22;1679;50.392;8.008;2022-08-19T04:20:42;18.20;99.90
3334;DHT22;1679;50.392;8.008;2022-08-19T04:23:07;18.20;99.90
3334;DHT22;1679;50.392;8.008;2022-08-19T04:25:41;18.20;99.90
3334;DHT22;1679;50.392;8.008;2022-08-19T04:28:08;18.10;99.90
3334;DHT22;1679;50.392;8.008;2022-08-19T04:30:44;18.10;99.90
3334;DHT22;1679;50.392;8.008;2022-08-19T04:33:11;18.10;99.90
3334;DHT22;1679;50.392;8.008;2022-08-19T04:35:42;18.20;99.90
3334;DHT22;1679;50.392;8.008;2022-08-19T04:38:09;18.20;99.90
3334;DHT22;1679;50.392;8.008;2022-08-19T04:40:40;18.20;99.90
3334;DHT22;1679;50.392;8.008;2022-08-19T04:43:24;18.20;99.90
3334;DHT22;1679;50.392;8.008;2022-08-19T04:45:50;18.20;99.90
3334;DHT22;1679;50.392;8.008;2022-08-19T04:48:17;18.20;99.90
3334;DHT22;1679;50.392;8.008;2022-08-19T04:50:58;18.20;99.90
3334;DHT22;1679;50.392;8.008;2022-08-19T04:53:29;18.20;99.90
3334;DHT22;1679;50.392;8.008;2022-08-19T04:55:59;18.20;99.90
3334;DHT22;1679;50.392;8.008;2022-08-19T04:58:29;18.20;99.90
3334;DHT22;1679;50.392;8.008;2022-08-19T05:00:55;18.20;99.90
3334;DHT22;1679;50.392;8.008;2022-08-19T05:03:21;18.20;99.90
3334;DHT22;1679;50.392;8.008;2022-08-19T05:05:48;18.20;99.90
3334;DHT22;1679;50.392;8.008;2022-08-19T05:08:17;18.20;99.90
3334;DHT22;1679;50.392;8.008;2022-08-19T05:10:48;18.20;99.90
3334;DHT22;1679;50.392;8.008;2022-08-19T05:13:16;18.20;99.90
3334;DHT22;1679;50.392;8.008;2022-08-19T05:15:42;18.20;99.90
3334;DHT22;1679;50.392;8.008;2022-08-19T05:18:08;18.30;99.90
3334;DHT22;1679;50.392;8.008;2022-08-19T05:20:52;18.40;99.90
3334;DHT22;1679;50.392;8.008;2022-08-19T05:23:36;18.40;99.90
3334;DHT22;1679;50.392;8.008;2022-08-19T05:26:03;18.50;99.90
3334;DHT22;1679;50.392;8.008;2022-08-19T05:28:29;18.50;99.90
3334;DHT22;1679;50.392;8.008;2022-08-19T05:30:54;18.50;99.90
3334;DHT22;1679;50.392;8.008;2022-08-19T05:33:21;18.50;99.90
3334;DHT22;1679;50.392;8.008;2022-08-19T05:35:48;18.50;99.90
3334;DHT22;1679;50.392;8.008;2022-08-19T05:38:16;18.60;99.90
3334;DHT22;1679;50.392;8.008;2022-08-19T05:40:42;18.60;99.90
3334;DHT22;1679;50.392;8.008;2022-08-19T05:43:11;18.70;99.90
3334;DHT22;1679;50.392;8.008;2022-08-19T05:45:41;18.70;99.90
3334;DHT22;1679;50.392;8.008;2022-08-19T05:48:08;18.70;99.90
3334;DHT22;1679;50.392;8.008;2022-08-19T05:50:37;18.70;99.90
3334;DHT22;1679;50.392;8.008;2022-08-19T05:53:03;18.80;99.90
3334;DHT22;1679;50.392;8.008;2022-08-19T05:55:28;18.90;99.90
3334;DHT22;1679;50.392;8.008;2022-08-19T05:57:54;19.00;99.90
3334;DHT22;1679;50.392;8.008;2022-08-19T06:00:19;19.10;99.90
3334;DHT22;1679;50.392;8.008;2022-08-19T06:02:45;19.00;99.90
3334;DHT22;1679;50.392;8.008;2022-08-19T06:05:10;19.10;99.90
3334;DHT22;1679;50.392;8.008;2022-08-19T06:07:37;19.20;99.90
3334;DHT22;1679;50.392;8.008;2022-08-19T06:10:08;19.20;99.90
3334;DHT22;1679;50.392;8.008;2022-08-19T06:12:35;19.30;99.90
3334;DHT22;1679;50.392;8.008;2022-08-19T06:15:02;19.30;99.90
3334;DHT22;1679;50.392;8.008;2022-08-19T06:17:30;19.30;99.90
3334;DHT22;1679;50.392;8.008;2022-08-19T06:19:56;19.40;99.90
3334;DHT22;1679;50.392;8.008;2022-08-19T06:22:21;19.50;99.90
3334;DHT22;1679;50.392;8.008;2022-08-19T06:24:49;19.70;99.90
3334;DHT22;1679;50.392;8.008;2022-08-19T06:27:19;19.70;99.90
3334;DHT22;1679;50.392;8.008;2022-08-19T06:29:45;19.70;99.90
3334;DHT22;1679;50.392;8.008;2022-08-19T06:32:12;19.70;99.90
3334;DHT22;1679;50.392;8.008;2022-08-19T06:34:40;19.80;99.90
3334;DHT22;1679;50.392;8.008;2022-08-19T06:37:06;19.90;99.90
3334;DHT22;1679;50.392;8.008;2022-08-19T06:39:35;20.00;99.90
3334;DHT22;1679;50.392;8.008;2022-08-19T06:42:04;20.10;99.90
3334;DHT22;1679;50.392;8.008;2022-08-19T06:44:34;20.10;99.90
3334;DHT22;1679;50.392;8.008;2022-08-19T06:47:03;20.10;99.90
3334;DHT22;1679;50.392;8.008;2022-08-19T06:49:29;20.10;99.90
3334;DHT22;1679;50.392;8.008;2022-08-19T06:51:57;20.20;99.90
3334;DHT22;1679;50.392;8.008;2022-08-19T06:54:24;20.20;99.90
3334;DHT22;1679;50.392;8.008;2022-08-19T06:56:51;20.30;99.90
3334;DHT22;1679;50.392;8.008;2022-08-19T06:59:19;20.40;99.90
3334;DHT22;1679;50.392;8.008;2022-08-19T07:01:50;20.30;99.90
3334;DHT22;1679;50.392;8.008;2022-08-19T07:04:18;20.40;99.90
3334;DHT22;1679;50.392;8.008;2022-08-19T07:06:44;20.40;99.90
3334;DHT22;1679;50.392;8.008;2022-08-19T07:09:12;20.40;99.90
3334;DHT22;1679;50.392;8.008;2022-08-19T07:11:39;20.40;99.90
3334;DHT22;1679;50.392;8.008;2022-08-19T07:14:08;20.40;99.90
3334;DHT22;1679;50.392;8.008;2022-08-19T07:16:34;20.50;99.90
3334;DHT22;1679;50.392;8.008;2022-08-19T07:19:00;20.60;99.90
3334;DHT22;1679;50.392;8.008;2022-08-19T07:21:27;20.80;99.90
3334;DHT22;1679;50.392;8.008;2022-08-19T07:23:56;20.80;99.90
3334;DHT22;1679;50.392;8.008;2022-08-19T07:26:28;20.90;99.90
3334;DHT22;1679;50.392;8.008;2022-08-19T07:28:55;20.90;99.90
3334;DHT22;1679;50.392;8.008;2022-08-19T07:31:23;21.00;99.90
3334;DHT22;1679;50.392;8.008;2022-08-19T07:33:50;21.30;99.90
3334;DHT22;1679;50.392;8.008;2022-08-19T07:36:20;21.50;99.90
3334;DHT22;1679;50.392;8.008;2022-08-19T07:38:48;21.90;99.90
3334;DHT22;1679;50.392;8.008;2022-08-19T07:41:17;22.00;99.90
3334;DHT22;1679;50.392;8.008;2022-08-19T07:43:44;22.40;99.90
3334;DHT22;1679;50.392;8.008;2022-08-19T07:46:11;22.80;99.90
3334;DHT22;1679;50.392;8.008;2022-08-19T07:48:40;23.10;99.90
3334;DHT22;1679;50.392;8.008;2022-08-19T07:51:07;23.50;99.90
3334;DHT22;1679;50.392;8.008;2022-08-19T07:53:34;23.80;99.90
3334;DHT22;1679;50.392;8.008;2022-08-19T07:56:00;23.90;99.90
3334;DHT22;1679;50.392;8.008;2022-08-19T07:58:31;24.10;99.90
3334;DHT22;1679;50.392;8.008;2022-08-19T08:00:58;23.80;99.90
3334;DHT22;1679;50.392;8.008;2022-08-19T08:03:23;23.80;99.90
3334;DHT22;1679;50.392;8.008;2022-08-19T08:06:08;24.00;99.90
3334;DHT22;1679;50.392;8.008;2022-08-19T08:08:52;23.80;99.90
3334;DHT22;1679;50.392;8.008;2022-08-19T08:11:37;24.10;99.90
3334;DHT22;1679;50.392;8.008;2022-08-19T08:14:02;24.10;99.90
3334;DHT22;1679;50.392;8.008;2022-08-19T08:16:33;24.30;99.90
3334;DHT22;1679;50.392;8.008;2022-08-19T08:18:59;24.30;99.90
3334;DHT22;1679;50.392;8.008;2022-08-19T08:21:25;24.20;99.90
3334;DHT22;1679;50.392;8.008;2022-08-19T08:23:50;24.30;99.90
3334;DHT22;1679;50.392;8.008;2022-08-19T08:26:20;24.50;99.90
3334;DHT22;1679;50.392;8.008;2022-08-19T08:28:46;24.50;99.90
3334;DHT22;1679;50.392;8.008;2022-08-19T08:31:13;24.60;99.90
3334;DHT22;1679;50.392;8.008;2022-08-19T08:33:40;25.00;99.90
3334;DHT22;1679;50.392;8.008;2022-08-19T08:36:08;25.10;99.90
3334;DHT22;1679;50.392;8.008;2022-08-19T08:38:34;25.30;99.90
3334;DHT22;1679;50.392;8.008;2022-08-19T08:41:09;25.10;99.90
3334;DHT22;1679;50.392;8.008;2022-08-19T08:43:40;25.10;99.90
3334;DHT22;1679;50.392;8.008;2022-08-19T08:46:13;24.90;99.90
3334;DHT22;1679;50.392;8.008;2022-08-19T08:51:32;25.10;99.90
3334;DHT22;1679;50.392;8.008;2022-08-19T08:53:59;24.80;99.90
3334;DHT22;1679;50.392;8.008;2022-08-19T08:56:25;24.60;99.90
3334;DHT22;1679;50.392;8.008;2022-08-19T08:59:00;24.60;99.90
3334;DHT22;1679;50.392;8.008;2022-08-19T09:01:27;24.60;99.90
3334;DHT22;1679;50.392;8.008;2022-08-19T09:03:53;24.90;99.90
3334;DHT22;1679;50.392;8.008;2022-08-19T09:06:25;25.10;99.90
3334;DHT22;1679;50.392;8.008;2022-08-19T09:12:08;25.80;99.90
3334;DHT22;1679;50.392;8.008;2022-08-19T09:17:16;26.50;99.90
3334;DHT22;1679;50.392;8.008;2022-08-19T09:22:19;25.80;99.90
3334;DHT22;1679;50.392;8.008;2022-08-19T09:24:51;25.80;99.90
3334;DHT22;1679;50.392;8.008;2022-08-19T09:27:19;25.90;99.90
3334;DHT22;1679;50.392;8.008;2022-08-19T09:29:46;26.00;99.90
3334;DHT22;1679;50.392;8.008;2022-08-19T09:32:14;26.10;99.90
3334;DHT22;1679;50.392;8.008;2022-08-19T09:34:39;26.20;99.90
3334;DHT22;1679;50.392;8.008;2022-08-19T09:37:05;26.00;99.90
3334;DHT22;1679;50.392;8.008;2022-08-19T09:39:31;26.20;99.90
3334;DHT22;1679;50.392;8.008;2022-08-19T09:41:57;26.40;99.90
3334;DHT22;1679;50.392;8.008;2022-08-19T09:44:22;26.80;99.90
3334;DHT22;1679;50.392;8.008;2022-08-19T09:46:48;26.50;99.90
3334;DHT22;1679;50.392;8.008;2022-08-19T09:49:16;26.20;99.90
3334;DHT22;1679;50.392;8.008;2022-08-19T09:51:42;26.20;99.90
3334;DHT22;1679;50.392;8.008;2022-08-19T09:54:08;26.50;99.90
3334;DHT22;1679;50.392;8.008;2022-08-19T09:56:34;26.60;99.90
3334;DHT22;1679;50.392;8.008;2022-08-19T09:59:00;26.30;99.90
3334;DHT22;1679;50.392;8.008;2022-08-19T10:01:28;25.90;99.90
3334;DHT22;1679;50.392;8.008;2022-08-19T10:03:55;25.60;99.90
3334;DHT22;1679;50.392;8.008;2022-08-19T10:06:23;25.70;99.90
3334;DHT22;1679;50.392;8.008;2022-08-19T10:08:51;26.20;99.90
3334;DHT22;1679;50.392;8.008;2022-08-19T10:11:18;26.80;99.90
3334;DHT22;1679;50.392;8.008;2022-08-19T10:13:44;27.00;99.90
3334;DHT22;1679;50.392;8.008;2022-08-19T10:16:13;27.20;99.90
3334;DHT22;1679;50.392;8.008;2022-08-19T10:18:40;27.60;99.90
3334;DHT22;1679;50.392;8.008;2022-08-19T10:21:22;28.00;99.90
3334;DHT22;1679;50.392;8.008;2022-08-19T10:23:50;27.80;99.90
3334;DHT22;1679;50.392;8.008;2022-08-19T10:26:22;27.10;99.90
3334;DHT22;1679;50.392;8.008;2022-08-19T10:28:48;26.80;99.90
3334;DHT22;1679;50.392;8.008;2022-08-19T10:31:20;26.50;99.90
3334;DHT22;1679;50.392;8.008;2022-08-19T10:33:47;26.40;99.90
3334;DHT22;1679;50.392;8.008;2022-08-19T10:36:21;26.50;99.90
3334;DHT22;1679;50.392;8.008;2022-08-19T10:38:51;26.70;99.90
3334;DHT22;1679;50.392;8.008;2022-08-19T10:41:19;27.10;99.90
3334;DHT22;1679;50.392;8.008;2022-08-19T10:43:47;27.20;99.90
3334;DHT22;1679;50.392;8.008;2022-08-19T10:46:16;27.40;99.90
3334;DHT22;1679;50.392;8.008;2022-08-19T10:48:43;27.60;99.90
3334;DHT22;1679;50.392;8.008;2022-08-19T10:51:09;27.10;99.90
3334;DHT22;1679;50.392;8.008;2022-08-19T10:53:54;26.70;99.90
3334;DHT22;1679;50.392;8.008;2022-08-19T10:56:20;26.60;99.90
3334;DHT22;1679;50.392;8.008;2022-08-19T10:59:04;26.80;99.90
3334;DHT22;1679;50.392;8.008;2022-08-19T11:01:31;26.80;99.90
3334;DHT22;1679;50.392;8.008;2022-08-19T11:03:59;26.70;99.90
3334;DHT22;1679;50.392;8.008;2022-08-19T11:06:25;26.50;99.90
3334;DHT22;1679;50.392;8.008;2022-08-19T11:08:54;26.30;99.90
3334;DHT22;1679;50.392;8.008;2022-08-19T11:11:21;26.40;99.90
3334;DHT22;1679;50.392;8.008;2022-08-19T11:13:48;26.50;99.90
3334;DHT22;1679;50.392;8.008;2022-08-19T11:16:18;26.50;99.90
3334;DHT22;1679;50.392;8.008;2022-08-19T11:18:47;26.70;99.90
3334;DHT22;1679;50.392;8.008;2022-08-19T11:21:16;26.90;99.90
3334;DHT22;1679;50.392;8.008;2022-08-19T11:23:43;27.00;99.90
3334;DHT22;1679;50.392;8.008;2022-08-19T11:26:11;27.30;99.90
3334;DHT22;1679;50.392;8.008;2022-08-19T11:28:36;27.70;99.90
3334;DHT22;1679;50.392;8.008;2022-08-19T11:31:03;27.90;99.90
3334;DHT22;1679;50.392;8.008;2022-08-19T11:33:30;27.60;99.90
3334;DHT22;1679;50.392;8.008;2022-08-19T11:35:59;27.60;99.90
3334;DHT22;1679;50.392;8.008;2022-08-19T11:38:26;27.60;99.90
3334;DHT22;1679;50.392;8.008;2022-08-19T11:40:56;27.50;99.90
3334;DHT22;1679;50.392;8.008;2022-08-19T11:43:22;27.60;99.90
3334;DHT22;1679;50.392;8.008;2022-08-19T11:45:48;27.50;99.90
3334;DHT22;1679;50.392;8.008;2022-08-19T11:48:15;27.30;99.90
3334;DHT22;1679;50.392;8.008;2022-08-19T11:50:40;27.10;99.90
3334;DHT22;1679;50.392;8.008;2022-08-19T11:53:07;27.00;99.90
3334;DHT22;1679;50.392;8.008;2022-08-19T11:55:37;26.70;99.90
3334;DHT22;1679;50.392;8.008;2022-08-19T11:58:04;26.60;99.90
3334;DHT22;1679;50.392;8.008;2022-08-19T12:00:32;26.80;99.90
3334;DHT22;1679;50.392;8.008;2022-08-19T12:02:58;26.90;99.90
3334;DHT22;1679;50.392;8.008;2022-08-19T12:05:24;27.10;99.90
3334;DHT22;1679;50.392;8.008;2022-08-19T12:07:49;27.20;99.90
3334;DHT22;1679;50.392;8.008;2022-08-19T12:10:16;27.10;99.90
3334;DHT22;1679;50.392;8.008;2022-08-19T12:12:42;27.00;99.90
3334;DHT22;1679;50.392;8.008;2022-08-19T12:15:11;26.90;99.90
3334;DHT22;1679;50.392;8.008;2022-08-19T12:17:37;26.80;99.90
3334;DHT22;1679;50.392;8.008;2022-08-19T12:20:04;26.80;99.90
3334;DHT22;1679;50.392;8.008;2022-08-19T12:22:30;26.90;99.90
3334;DHT22;1679;50.392;8.008;2022-08-19T12:24:55;26.90;99.90
3334;DHT22;1679;50.392;8.008;2022-08-19T12:27:22;26.80;99.90
3334;DHT22;1679;50.392;8.008;2022-08-19T12:29:48;27.00;99.90
3334;DHT22;1679;50.392;8.008;2022-08-19T12:32:14;27.10;99.90
3334;DHT22;1679;50.392;8.008;2022-08-19T12:34:40;27.10;99.90
3334;DHT22;1679;50.392;8.008;2022-08-19T12:37:06;27.30;99.90
3334;DHT22;1679;50.392;8.008;2022-08-19T12:39:38;27.20;99.90
3334;DHT22;1679;50.392;8.008;2022-08-19T12:42:04;27.00;99.90
3334;DHT22;1679;50.392;8.008;2022-08-19T12:44:30;27.00;99.90
3334;DHT22;1679;50.392;8.008;2022-08-19T12:46:57;26.90;99.90
3334;DHT22;1679;50.392;8.008;2022-08-19T12:49:23;26.80;99.90
3334;DHT22;1679;50.392;8.008;2022-08-19T12:51:49;26.70;99.90
3334;DHT22;1679;50.392;8.008;2022-08-19T12:54:14;26.90;99.90
3334;DHT22;1679;50.392;8.008;2022-08-19T12:56:41;27.00;99.90
3334;DHT22;1679;50.392;8.008;2022-08-19T12:59:09;27.00;99.90
3334;DHT22;1679;50.392;8.008;2022-08-19T13:01:37;26.90;99.90
3334;DHT22;1679;50.392;8.008;2022-08-19T13:04:03;26.90;99.90
3334;DHT22;1679;50.392;8.008;2022-08-19T13:06:29;27.00;99.90
3334;DHT22;1679;50.392;8.008;2022-08-19T13:08:55;27.00;99.90
3334;DHT22;1679;50.392;8.008;2022-08-19T13:11:22;26.90;99.90
3334;DHT22;1679;50.392;8.008;2022-08-19T13:13:51;27.00;99.90
3334;DHT22;1679;50.392;8.008;2022-08-19T13:16:18;27.20;99.90
3334;DHT22;1679;50.392;8.008;2022-08-19T13:18:46;27.50;99.90
3334;DHT22;1679;50.392;8.008;2022-08-19T13:21:14;27.50;99.90
3334;DHT22;1679;50.392;8.008;2022-08-19T13:23:40;27.30;99.90
3334;DHT22;1679;50.392;8.008;2022-08-19T13:26:07;27.10;99.90
3334;DHT22;1679;50.392;8.008;2022-08-19T13:28:34;27.10;99.00
3334;DHT22;1679;50.392;8.008;2022-08-19T13:31:19;27.00;99.40
3334;DHT22;1679;50.392;8.008;2022-08-19T13:34:04;26.90;99.80
3334;DHT22;1679;50.392;8.008;2022-08-19T13:36:33;27.00;99.90
3334;DHT22;1679;50.392;8.008;2022-08-19T13:39:00;27.10;99.90
3334;DHT22;1679;50.392;8.008;2022-08-19T13:41:26;27.10;99.90
3334;DHT22;1679;50.392;8.008;2022-08-19T13:43:52;27.20;99.90
3334;DHT22;1679;50.392;8.008;2022-08-19T13:46:17;27.30;99.90
3334;DHT22;1679;50.392;8.008;2022-08-19T13:48:46;27.30;99.90
3334;DHT22;1679;50.392;8.008;2022-08-19T13:51:14;27.40;99.90
3334;DHT22;1679;50.392;8.008;2022-08-19T13:53:41;27.30;99.90
3334;DHT22;1679;50.392;8.008;2022-08-19T13:56:16;27.00;99.90
3334;DHT22;1679;50.392;8.008;2022-08-19T13:58:42;26.90;99.90
3334;DHT22;1679;50.392;8.008;2022-08-19T14:01:09;27.00;99.90
3334;DHT22;1679;50.392;8.008;2022-08-19T14:03:36;27.10;99.90
3334;DHT22;1679;50.392;8.008;2022-08-19T14:06:02;27.30;99.90
3334;DHT22;1679;50.392;8.008;2022-08-19T14:08:28;27.40;99.90
3334;DHT22;1679;50.392;8.008;2022-08-19T14:10:55;27.50;99.90
3334;DHT22;1679;50.392;8.008;2022-08-19T14:13:22;27.40;99.90
3334;DHT22;1679;50.392;8.008;2022-08-19T14:15:49;27.50;99.90
3334;DHT22;1679;50.392;8.008;2022-08-19T14:18:16;27.40;99.70
3334;DHT22;1679;50.392;8.008;2022-08-19T14:20:43;27.40;99.90
3334;DHT22;1679;50.392;8.008;2022-08-19T14:23:09;27.20;99.90
3334;DHT22;1679;50.392;8.008;2022-08-19T14:25:35;27.20;99.90
3334;DHT22;1679;50.392;8.008;2022-08-19T14:28:03;27.00;99.90
3334;DHT22;1679;50.392;8.008;2022-08-19T14:30:31;27.00;99.90
3334;DHT22;1679;50.392;8.008;2022-08-19T14:33:00;27.00;99.90
3334;DHT22;1679;50.392;8.008;2022-08-19T14:35:27;27.10;99.90
3334;DHT22;1679;50.392;8.008;2022-08-19T14:37:54;27.10;99.60
3334;DHT22;1679;50.392;8.008;2022-08-19T14:40:21;26.90;99.90
3334;DHT22;1679;50.392;8.008;2022-08-19T14:42:51;26.90;99.90
3334;DHT22;1679;50.392;8.008;2022-08-19T14:45:17;27.00;99.20
3334;DHT22;1679;50.392;8.008;2022-08-19T14:47:42;27.00;99.40
3334;DHT22;1679;50.392;8.008;2022-08-19T14:50:10;27.00;99.30
3334;DHT22;1679;50.392;8.008;2022-08-19T14:52:36;27.00;98.60
3334;DHT22;1679;50.392;8.008;2022-08-19T14:55:03;27.00;97.30
3334;DHT22;1679;50.392;8.008;2022-08-19T14:57:29;27.00;97.20
3334;DHT22;1679;50.392;8.008;2022-08-19T14:59:55;26.90;97.70
3334;DHT22;1679;50.392;8.008;2022-08-19T15:02:22;26.90;96.50
3334;DHT22;1679;50.392;8.008;2022-08-19T15:04:47;26.90;96.60
3334;DHT22;1679;50.392;8.008;2022-08-19T15:07:13;27.00;97.00
3334;DHT22;1679;50.392;8.008;2022-08-19T15:09:40;27.10;98.00
3334;DHT22;1679;50.392;8.008;2022-08-19T15:12:07;27.10;97.60
3334;DHT22;1679;50.392;8.008;2022-08-19T15:14:35;27.10;97.80
3334;DHT22;1679;50.392;8.008;2022-08-19T15:17:04;27.10;98.30
3334;DHT22;1679;50.392;8.008;2022-08-19T15:19:31;27.10;97.10
3334;DHT22;1679;50.392;8.008;2022-08-19T15:21:57;27.00;97.00
3334;DHT22;1679;50.392;8.008;2022-08-19T15:24:23;27.00;96.90
3334;DHT22;1679;50.392;8.008;2022-08-19T15:26:52;27.00;96.80
3334;DHT22;1679;50.392;8.008;2022-08-19T15:29:18;27.00;97.00
3334;DHT22;1679;50.392;8.008;2022-08-19T15:31:43;27.00;97.90
3334;DHT22;1679;50.392;8.008;2022-08-19T15:34:10;27.00;98.20
3334;DHT22;1679;50.392;8.008;2022-08-19T15:36:35;27.00;99.10
3334;DHT22;1679;50.392;8.008;2022-08-19T15:39:03;27.00;98.90
3334;DHT22;1679;50.392;8.008;2022-08-19T15:41:30;27.10;99.10
3334;DHT22;1679;50.392;8.008;2022-08-19T15:46:26;27.20;98.80
3334;DHT22;1679;50.392;8.008;2022-08-19T15:48:55;27.20;98.90
3334;DHT22;1679;50.392;8.008;2022-08-19T15:51:21;27.20;98.40
3334;DHT22;1679;50.392;8.008;2022-08-19T15:53:50;27.20;98.70
3334;DHT22;1679;50.392;8.008;2022-08-19T15:56:16;27.30;98.60
3334;DHT22;1679;50.392;8.008;2022-08-19T15:58:41;27.30;98.20
3334;DHT22;1679;50.392;8.008;2022-08-19T16:01:26;27.30;98.00
3334;DHT22;1679;50.392;8.008;2022-08-19T16:04:10;27.20;97.90
3334;DHT22;1679;50.392;8.008;2022-08-19T16:06:56;27.20;97.50
3334;DHT22;1679;50.392;8.008;2022-08-19T16:09:25;27.20;96.70
3334;DHT22;1679;50.392;8.008;2022-08-19T16:11:56;27.10;96.10
3334;DHT22;1679;50.392;8.008;2022-08-19T16:14:24;27.00;95.70
3334;DHT22;1679;50.392;8.008;2022-08-19T16:16:50;27.00;95.60
3334;DHT22;1679;50.392;8.008;2022-08-19T16:19:17;26.90;95.70
3334;DHT22;1679;50.392;8.008;2022-08-19T16:21:47;26.90;95.50